Airport Name : Cambridge Bay

Other Name : Cambridge Bay

ICAO : CYCB

IATA : YCB

FAA :

Latitude : 69.108055

Longitude : -105.138333

Country : Canada

Local Date and Time : 1/22/2018 9:09:00 AM

 

TAF (Terminal Aerodrome Forecast)

TAF CYCB 221238Z 2213/2301 03008KT P6SM IC FEW010 RMK NXT FCST BY 221900Z

 

METAR (METeorological Aerodrome Report)

CYCB 221600Z 06004KT 8SM IC FEW003 M38/M42 A3035 RMK SF1 SLP287

CYCB 221522Z 05005KT 10SM IC FEW003 M38/M42 A3036 RMK SF1 SLP289

CYCB 221500Z 04007KT 12SM IC SKC M38/M42 A3036 RMK SLP288

CYCB 221400Z 04005KT 12SM IC FEW010 M38/M42 A3036 RMK SC1 SLP289

CYCB 221300Z 02006KT 12SM IC FEW010 M38/M41 A3037 RMK SC1 SLP291